createdAt,value
2018-07-12T00:00:28.909Z,17.39
2018-07-12T00:01:28.894Z,17.34
2018-07-12T00:02:28.879Z,17.38
2018-07-12T00:03:28.863Z,17.32
2018-07-12T00:04:28.854Z,17.24
2018-07-12T00:05:28.834Z,17.24
2018-07-12T00:06:28.826Z,17.31
2018-07-12T00:07:28.829Z,17.24
2018-07-12T00:08:28.897Z,17.31
2018-07-12T00:09:28.782Z,17.30
2018-07-12T00:10:28.757Z,17.24
2018-07-12T00:11:28.744Z,17.22
2018-07-12T00:12:28.727Z,17.27
2018-07-12T00:13:28.711Z,17.20
2018-07-12T00:14:28.703Z,17.20
2018-07-12T00:15:28.683Z,17.20
2018-07-12T00:16:28.671Z,17.19
2018-07-12T00:17:28.654Z,17.20
2018-07-12T00:18:28.638Z,17.13
2018-07-12T00:19:28.623Z,17.16
2018-07-12T00:20:28.609Z,17.07
2018-07-12T00:21:28.592Z,17.04
2018-07-12T00:22:28.576Z,17.12
2018-07-12T00:23:28.562Z,17.13
2018-07-12T00:24:28.547Z,17.07
2018-07-12T00:25:28.531Z,17.09
2018-07-12T00:26:28.518Z,17.05
2018-07-12T00:27:28.501Z,16.99
2018-07-12T00:28:28.492Z,17.02
2018-07-12T00:29:28.469Z,16.95
2018-07-12T00:30:28.455Z,16.92
2018-07-12T00:31:28.442Z,16.89
2018-07-12T00:32:28.426Z,16.87
2018-07-12T00:33:28.411Z,16.87
2018-07-12T00:34:28.403Z,16.95
2018-07-12T00:35:28.433Z,16.94
2018-07-12T00:36:28.366Z,16.94
2018-07-12T00:37:28.349Z,16.97
2018-07-12T00:38:28.344Z,16.95
2018-07-12T00:39:28.321Z,16.94
2018-07-12T00:40:28.306Z,16.97
2018-07-12T00:41:28.293Z,16.97
2018-07-12T00:42:28.277Z,16.86
2018-07-12T00:43:28.261Z,16.92
2018-07-12T00:44:28.246Z,16.92
2018-07-12T00:45:28.231Z,16.99
2018-07-12T00:46:28.215Z,16.82
2018-07-12T00:47:28.200Z,16.99
2018-07-12T00:48:28.185Z,16.95
2018-07-12T00:49:28.171Z,16.91
2018-07-12T00:50:28.156Z,16.91
2018-07-12T00:51:28.139Z,16.91
2018-07-12T00:52:28.123Z,16.91
2018-07-12T00:53:28.109Z,16.95
2018-07-12T00:54:28.098Z,16.97
2018-07-12T00:55:28.080Z,16.94
2018-07-12T00:56:28.063Z,16.84
2018-07-12T00:57:28.056Z,16.86
2018-07-12T00:58:28.033Z,16.80
2018-07-12T00:59:28.019Z,16.84
2018-07-12T01:00:28.003Z,16.87
2018-07-12T01:01:27.987Z,16.82
2018-07-12T01:02:27.971Z,16.80
2018-07-12T01:03:27.961Z,16.84
2018-07-12T01:04:27.942Z,16.82
2018-07-12T01:05:27.926Z,16.86
2018-07-12T01:06:27.913Z,16.87
2018-07-12T01:07:27.897Z,16.84
2018-07-12T01:08:27.889Z,16.84
2018-07-12T01:09:27.864Z,16.87
2018-07-12T01:10:27.849Z,16.83
2018-07-12T01:11:27.842Z,16.82
2018-07-12T01:12:27.820Z,16.89
2018-07-12T01:13:27.806Z,16.84
2018-07-12T01:14:27.792Z,16.74
2018-07-12T01:15:27.773Z,16.77
2018-07-12T01:16:27.759Z,16.82
2018-07-12T01:17:27.744Z,16.89
2018-07-12T01:18:27.732Z,16.84
2018-07-12T01:19:27.715Z,16.86
2018-07-12T01:20:27.706Z,16.83
2018-07-12T01:21:27.692Z,16.82
2018-07-12T01:22:27.667Z,16.84
2018-07-12T01:23:27.655Z,16.86
2018-07-12T01:24:27.637Z,16.86
2018-07-12T01:25:27.620Z,16.83
2018-07-12T01:26:27.606Z,16.84
2018-07-12T01:27:27.592Z,16.82
2018-07-12T01:28:27.576Z,16.89
2018-07-12T01:29:27.560Z,16.79
2018-07-12T01:30:27.544Z,16.76
2018-07-12T01:31:27.539Z,16.76
2018-07-12T01:32:27.517Z,16.79
2018-07-12T01:33:27.498Z,16.73
2018-07-12T01:34:27.496Z,16.80
2018-07-12T01:35:27.467Z,16.83
2018-07-12T01:36:27.456Z,16.80
2018-07-12T01:37:27.438Z,16.76
2018-07-12T01:38:27.422Z,16.74
2018-07-12T01:39:27.415Z,16.80
2018-07-12T01:40:27.392Z,16.73
2018-07-12T01:41:27.379Z,16.76
2018-07-12T01:42:27.369Z,16.79
2018-07-12T01:43:27.348Z,16.80
2018-07-12T01:44:27.329Z,16.79
2018-07-12T01:45:27.313Z,16.83
2018-07-12T01:46:27.300Z,16.76
2018-07-12T01:47:27.288Z,16.79
2018-07-12T01:48:27.276Z,16.66
2018-07-12T01:49:27.252Z,16.66
2018-07-12T01:50:27.236Z,16.69
2018-07-12T01:51:27.222Z,16.59
2018-07-12T01:52:27.208Z,16.62
2018-07-12T01:53:27.192Z,16.66
2018-07-12T01:54:27.174Z,16.61
2018-07-12T01:55:27.174Z,16.51
2018-07-12T01:56:27.143Z,16.55
2018-07-12T01:57:27.129Z,16.47
2018-07-12T01:58:27.111Z,16.54
2018-07-12T01:59:27.097Z,16.59
2018-07-12T02:00:27.131Z,16.69
2018-07-12T02:01:27.065Z,16.73
2018-07-12T02:02:27.052Z,16.68
2018-07-12T02:03:27.036Z,16.72
2018-07-12T02:04:27.021Z,16.72
2018-07-12T02:05:27.002Z,16.83
2018-07-12T02:06:26.989Z,16.89
2018-07-12T02:07:26.978Z,16.79
2018-07-12T02:08:26.959Z,16.74
2018-07-12T02:09:26.940Z,16.80
2018-07-12T02:10:26.928Z,16.79
2018-07-12T02:11:26.912Z,16.79
2018-07-12T02:12:26.895Z,16.76
2018-07-12T02:13:26.879Z,16.74
2018-07-12T02:14:26.884Z,16.57
2018-07-12T02:15:26.849Z,16.64
2018-07-12T02:16:26.834Z,16.61
2018-07-12T02:17:26.821Z,16.47
2018-07-12T02:18:26.802Z,16.47
2018-07-12T02:19:26.786Z,16.49
2018-07-12T02:20:26.772Z,16.47
2018-07-12T02:21:26.765Z,16.46
2018-07-12T02:22:26.747Z,16.46
2018-07-12T02:23:26.725Z,16.40
2018-07-12T02:24:26.712Z,16.37
2018-07-12T02:25:26.693Z,16.41
2018-07-12T02:26:26.680Z,16.40
2018-07-12T02:27:26.664Z,16.36
2018-07-12T02:28:26.647Z,16.40
2018-07-12T02:29:26.632Z,16.39
2018-07-12T02:30:26.615Z,16.36
2018-07-12T02:31:26.599Z,16.31
2018-07-12T02:32:26.590Z,16.39
2018-07-12T02:33:26.571Z,16.31
2018-07-12T02:34:26.557Z,16.34
2018-07-12T02:35:26.547Z,16.37
2018-07-12T02:36:26.547Z,16.32
2018-07-12T02:37:26.513Z,16.37
2018-07-12T02:38:26.490Z,16.36
2018-07-12T02:39:26.476Z,16.34
2018-07-12T02:40:26.460Z,16.31
2018-07-12T02:41:26.444Z,16.31
2018-07-12T02:42:26.429Z,16.29
2018-07-12T02:43:26.414Z,16.25
2018-07-12T02:44:26.399Z,16.24
2018-07-12T02:45:26.381Z,16.18
2018-07-12T02:46:26.369Z,16.25
2018-07-12T02:47:26.352Z,16.16
2018-07-12T02:48:26.404Z,16.17
2018-07-12T02:49:26.320Z,16.16
2018-07-12T02:50:26.304Z,16.17
2018-07-12T02:51:26.288Z,16.22
2018-07-12T02:52:26.273Z,16.17
2018-07-12T02:53:26.266Z,16.25
2018-07-12T02:54:26.253Z,16.22
2018-07-12T02:55:26.226Z,16.16
2018-07-12T02:56:26.211Z,16.18
2018-07-12T02:57:26.195Z,16.25
2018-07-12T02:58:26.179Z,16.08
2018-07-12T02:59:26.164Z,16.12
2018-07-12T03:00:26.151Z,16.05
2018-07-12T03:01:26.131Z,16.08
2018-07-12T03:02:26.115Z,16.13
2018-07-12T03:03:26.100Z,15.99
2018-07-12T03:04:26.087Z,16.08
2018-07-12T03:05:26.068Z,15.98
2018-07-12T03:06:26.062Z,16.03
2018-07-12T03:07:26.037Z,15.99
2018-07-12T03:08:26.021Z,16.02
2018-07-12T03:09:26.022Z,16.08
2018-07-12T03:10:25.989Z,16.05
2018-07-12T03:11:25.977Z,16.03
2018-07-12T03:12:25.961Z,15.99
2018-07-12T03:13:25.944Z,16.03
2018-07-12T03:14:25.929Z,16.05
2018-07-12T03:15:25.915Z,16.05
2018-07-12T03:16:25.895Z,16.06
2018-07-12T03:17:25.879Z,16.08
2018-07-12T03:18:25.863Z,16.02
2018-07-12T03:19:25.849Z,16.02
2018-07-12T03:20:25.833Z,16.03
2018-07-12T03:21:25.816Z,15.94
2018-07-12T03:22:25.902Z,16.00
2018-07-12T03:23:25.785Z,16.02
2018-07-12T03:24:25.769Z,16.03
2018-07-12T03:25:25.753Z,16.05
2018-07-12T03:26:25.737Z,15.94
2018-07-12T03:27:25.721Z,15.99
2018-07-12T03:28:25.707Z,16.02
2018-07-12T03:29:25.689Z,16.00
2018-07-12T03:30:25.676Z,15.88
2018-07-12T03:31:25.665Z,16.00
2018-07-12T03:32:25.645Z,16.00
2018-07-12T03:33:25.633Z,15.98
2018-07-12T03:34:25.612Z,15.98
2018-07-12T03:35:25.596Z,16.00
2018-07-12T03:36:25.581Z,15.98
2018-07-12T03:37:25.564Z,15.92
2018-07-12T03:38:25.554Z,15.92
2018-07-12T03:39:25.534Z,15.88
2018-07-12T03:40:25.557Z,15.81
2018-07-12T03:41:25.510Z,15.88
2018-07-12T03:42:25.484Z,15.96
2018-07-12T03:43:25.473Z,15.98
2018-07-12T03:44:25.459Z,15.94
2018-07-12T03:45:25.437Z,16.02
2018-07-12T03:46:25.421Z,15.94
2018-07-12T03:47:25.405Z,15.94
2018-07-12T03:48:25.392Z,15.98
2018-07-12T03:49:25.384Z,16.05
2018-07-12T03:50:25.361Z,16.06
2018-07-12T03:51:25.353Z,15.96
2018-07-12T03:52:25.330Z,15.96
2018-07-12T03:53:25.328Z,15.94
2018-07-12T03:54:25.296Z,15.98
2018-07-12T03:55:25.294Z,15.98
2018-07-12T03:56:25.262Z,16.00
2018-07-12T03:57:25.251Z,16.08
2018-07-12T03:58:25.233Z,16.00
2018-07-12T03:59:25.228Z,16.05
2018-07-12T04:00:25.212Z,16.02
2018-07-12T04:01:25.187Z,15.99
2018-07-12T04:02:25.176Z,16.09
2018-07-12T04:03:25.163Z,16.09
2018-07-12T04:04:25.139Z,16.08
2018-07-12T04:05:25.124Z,16.17
2018-07-12T04:06:25.109Z,16.13
2018-07-12T04:07:25.093Z,16.16
2018-07-12T04:08:25.077Z,16.18
2018-07-12T04:09:25.062Z,16.22
2018-07-12T04:10:25.045Z,16.26
2018-07-12T04:11:25.030Z,16.21
2018-07-12T04:12:25.014Z,16.13
2018-07-12T04:13:24.995Z,16.18
2018-07-12T04:14:24.982Z,16.17
2018-07-12T04:15:24.965Z,16.16
2018-07-12T04:16:24.949Z,16.22
2018-07-12T04:17:24.933Z,16.12
2018-07-12T04:18:24.917Z,16.28
2018-07-12T04:19:24.901Z,16.26
2018-07-12T04:20:24.889Z,16.32
2018-07-12T04:21:24.870Z,16.28
2018-07-12T04:22:24.852Z,16.31
2018-07-12T04:23:24.848Z,16.32
2018-07-12T04:24:24.823Z,16.29
2018-07-12T04:25:24.807Z,16.37
2018-07-12T04:26:24.790Z,16.32
2018-07-12T04:27:24.783Z,16.31
2018-07-12T04:28:24.760Z,16.31
2018-07-12T04:29:24.749Z,16.24
2018-07-12T04:30:24.730Z,16.31
2018-07-12T04:31:24.714Z,16.37
2018-07-12T04:32:24.697Z,16.34
2018-07-12T04:33:24.683Z,16.32
2018-07-12T04:34:24.671Z,16.49
2018-07-12T04:35:24.701Z,16.49
2018-07-12T04:36:24.635Z,16.59
2018-07-12T04:37:24.620Z,16.44
2018-07-12T04:38:24.603Z,16.44
2018-07-12T04:39:24.588Z,16.49
2018-07-12T04:40:24.578Z,16.40
2018-07-12T04:41:24.558Z,16.49
2018-07-12T04:42:24.544Z,16.44
2018-07-12T04:43:24.525Z,16.49
2018-07-12T04:44:24.511Z,16.50
2018-07-12T04:45:24.495Z,16.64
2018-07-12T04:46:24.479Z,16.74
2018-07-12T04:47:25.198Z,16.64
2018-07-12T04:48:24.452Z,16.64
2018-07-12T04:49:24.450Z,16.68
2018-07-12T04:50:24.417Z,16.79
2018-07-12T04:51:24.404Z,16.74
2018-07-12T04:52:24.388Z,16.77
2018-07-12T04:53:24.372Z,16.77
2018-07-12T04:54:24.365Z,16.80
2018-07-12T04:55:24.341Z,16.97
2018-07-12T04:56:24.326Z,16.95
2018-07-12T04:57:24.313Z,16.91
2018-07-12T04:58:24.416Z,16.98
2018-07-12T04:59:24.280Z,17.01
2018-07-12T05:00:24.264Z,17.05
2018-07-12T05:01:24.260Z,17.07
2018-07-12T05:02:24.234Z,17.02
2018-07-12T05:03:24.220Z,16.98
2018-07-12T05:04:24.203Z,17.04
2018-07-12T05:05:24.187Z,17.02
2018-07-12T05:06:24.175Z,17.22
2018-07-12T05:07:24.362Z,17.30
2018-07-12T05:08:24.151Z,17.17
2018-07-12T05:09:24.126Z,17.28
2018-07-12T05:10:24.168Z,17.19
2018-07-12T05:11:24.097Z,17.27
2018-07-12T05:12:24.083Z,17.35
2018-07-12T05:13:24.068Z,17.32
2018-07-12T05:14:24.059Z,17.34
2018-07-12T05:15:24.038Z,17.37
2018-07-12T05:16:24.040Z,17.27
2018-07-12T05:17:24.007Z,17.28
2018-07-12T05:18:23.995Z,17.37
2018-07-12T05:19:23.975Z,17.46
2018-07-12T05:20:23.967Z,17.42
2018-07-12T05:21:23.946Z,17.49
2018-07-12T05:22:23.939Z,17.52
2018-07-12T05:23:23.926Z,17.54
2018-07-12T05:24:23.902Z,17.57
2018-07-12T05:25:23.894Z,17.53
2018-07-12T05:26:23.869Z,17.59
2018-07-12T05:27:23.871Z,17.65
2018-07-12T05:28:23.841Z,17.59
2018-07-12T05:29:23.828Z,17.63
2018-07-12T05:30:23.811Z,17.65
2018-07-12T05:31:23.796Z,17.60
2018-07-12T05:32:23.783Z,17.69
2018-07-12T05:33:23.766Z,17.75
2018-07-12T05:34:23.752Z,17.84
2018-07-12T05:35:23.738Z,17.78
2018-07-12T05:36:23.722Z,17.82
2018-07-12T05:37:23.707Z,18.02
2018-07-12T05:38:23.691Z,18.05
2018-07-12T05:39:23.725Z,17.94
2018-07-12T05:40:23.670Z,17.93
2018-07-12T05:41:23.656Z,18.05
2018-07-12T05:42:23.632Z,18.19
2018-07-12T05:43:23.621Z,18.78
2018-07-12T05:44:23.602Z,19.67
2018-07-12T05:45:23.589Z,20.55
2018-07-12T05:46:23.581Z,21.47
2018-07-12T05:47:23.561Z,22.25
2018-07-12T05:48:23.545Z,22.93
2018-07-12T05:49:23.530Z,23.29
2018-07-12T05:50:23.516Z,23.91
2018-07-12T05:51:23.504Z,24.07
2018-07-12T05:52:23.489Z,24.59
2018-07-12T05:53:23.476Z,24.79
2018-07-12T05:54:23.462Z,24.96
2018-07-12T05:55:23.451Z,24.84
2018-07-12T05:56:23.439Z,25.29
2018-07-12T05:57:23.482Z,25.43
2018-07-12T05:58:23.415Z,25.78
2018-07-12T05:59:23.411Z,25.99
2018-07-12T06:00:23.400Z,26.22
2018-07-12T06:01:23.379Z,26.27
2018-07-12T06:02:23.378Z,26.55
2018-07-12T06:03:23.366Z,26.68
2018-07-12T06:04:23.358Z,26.63
2018-07-12T06:05:23.348Z,26.78
2018-07-12T06:06:23.338Z,27.03
2018-07-12T06:07:23.329Z,26.91
2018-07-12T06:08:23.312Z,27.01
2018-07-12T06:09:23.304Z,27.11
2018-07-12T06:10:23.307Z,27.13
2018-07-12T06:11:23.288Z,27.03
2018-07-12T06:12:23.279Z,27.43
2018-07-12T06:13:23.272Z,27.48
2018-07-12T06:14:23.270Z,27.68
2018-07-12T06:15:23.265Z,27.67
2018-07-12T06:16:23.250Z,27.95
2018-07-12T06:17:23.245Z,27.67
2018-07-12T06:18:23.238Z,27.64
2018-07-12T06:19:23.230Z,27.98
2018-07-12T06:20:23.223Z,28.16
2018-07-12T06:21:23.218Z,28.28
2018-07-12T06:22:23.216Z,28.70
2018-07-12T06:23:23.203Z,28.67
2018-07-12T06:24:23.200Z,28.43
2018-07-12T06:25:23.192Z,28.55
2018-07-12T06:26:23.188Z,28.53
2018-07-12T06:27:23.182Z,28.72
2018-07-12T06:28:23.182Z,28.47
2018-07-12T06:29:23.171Z,27.94
2018-07-12T06:30:23.169Z,28.01
2018-07-12T06:31:23.172Z,27.50
2018-07-12T06:32:23.161Z,26.53
2018-07-12T06:33:23.163Z,26.15
2018-07-12T06:34:23.149Z,26.07
2018-07-12T06:35:23.145Z,26.67
2018-07-12T06:36:23.141Z,27.29
2018-07-12T06:37:23.137Z,27.50
2018-07-12T06:38:23.130Z,27.55
2018-07-12T06:39:23.128Z,27.98
2018-07-12T06:40:23.125Z,28.15
2018-07-12T06:41:23.117Z,28.18
2018-07-12T06:42:23.114Z,28.40
2018-07-12T06:43:23.112Z,28.50
2018-07-12T06:44:23.110Z,28.93
2018-07-12T06:45:23.109Z,29.18
2018-07-12T06:46:23.101Z,29.13
2018-07-12T06:47:23.096Z,28.72
2018-07-12T06:48:23.093Z,28.30
2018-07-12T06:49:23.090Z,28.38
2018-07-12T06:50:23.095Z,28.75
2018-07-12T06:51:23.087Z,28.65
2018-07-12T06:52:23.092Z,28.92
2018-07-12T06:53:23.089Z,28.82
2018-07-12T06:54:23.077Z,29.07
2018-07-12T06:55:23.077Z,28.83
2018-07-12T06:56:23.075Z,28.82
2018-07-12T06:57:23.072Z,29.28
2018-07-12T06:58:23.078Z,29.59
2018-07-12T06:59:23.069Z,29.25
2018-07-12T07:00:23.071Z,29.28
2018-07-12T07:01:23.064Z,28.80
2018-07-12T07:02:23.065Z,28.75
2018-07-12T07:03:23.064Z,28.03
2018-07-12T07:04:23.065Z,26.92
2018-07-12T07:05:23.060Z,26.52
2018-07-12T07:06:23.065Z,25.93
2018-07-12T07:07:23.059Z,25.56
2018-07-12T07:08:23.060Z,25.76
2018-07-12T07:09:23.061Z,26.34
2018-07-12T07:10:23.059Z,26.91
2018-07-12T07:11:23.078Z,26.73
2018-07-12T07:12:23.059Z,26.97
2018-07-12T07:13:23.060Z,27.53
2018-07-12T07:14:23.056Z,28.00
2018-07-12T07:15:23.055Z,28.09
2018-07-12T07:16:23.068Z,27.76
2018-07-12T07:17:23.203Z,27.37
2018-07-12T07:18:23.054Z,27.64
2018-07-12T07:19:23.051Z,27.57
2018-07-12T07:20:23.052Z,27.41
2018-07-12T07:21:23.049Z,27.48
2018-07-12T07:22:23.050Z,27.44
2018-07-12T07:23:23.057Z,27.76
2018-07-12T07:24:23.049Z,27.61
2018-07-12T07:25:23.047Z,28.13
2018-07-12T07:26:23.068Z,27.55
2018-07-12T07:27:23.049Z,26.81
2018-07-12T07:28:23.055Z,26.93
2018-07-12T07:29:23.049Z,26.91
2018-07-12T07:30:23.057Z,26.51
2018-07-12T07:31:23.049Z,26.76
2018-07-12T07:32:23.108Z,26.71
2018-07-12T07:33:23.061Z,26.82
2018-07-12T07:34:23.051Z,26.30
2018-07-12T07:35:23.065Z,25.74
2018-07-12T07:36:23.051Z,25.09
2018-07-12T07:37:23.051Z,24.65
2018-07-12T07:38:23.051Z,24.25
2018-07-12T07:39:23.052Z,24.13
2018-07-12T07:40:23.053Z,24.16
2018-07-12T07:41:23.067Z,24.16
2018-07-12T07:42:23.049Z,24.58
2018-07-12T07:43:23.142Z,24.58
2018-07-12T07:44:23.049Z,24.77
2018-07-12T07:45:23.045Z,24.92
2018-07-12T07:46:23.045Z,25.24
2018-07-12T07:47:23.051Z,25.37
2018-07-12T07:48:23.044Z,25.24
2018-07-12T07:49:23.048Z,25.48
2018-07-12T07:50:23.039Z,25.41
2018-07-12T07:51:23.033Z,25.62
2018-07-12T07:52:23.030Z,25.54
2018-07-12T07:53:23.036Z,25.40
2018-07-12T07:54:23.353Z,25.36
2018-07-12T07:55:23.746Z,25.00
2018-07-12T07:56:23.356Z,24.47
2018-07-12T07:57:23.020Z,23.91
2018-07-12T07:58:23.338Z,23.85
2018-07-12T08:01:23.719Z,24.61
2018-07-12T08:02:23.323Z,24.62
2018-07-12T08:03:23.092Z,24.28
2018-07-12T08:04:23.185Z,24.09
2018-07-12T08:05:23.293Z,23.77
2018-07-12T08:06:23.338Z,23.70
2018-07-12T08:07:23.514Z,23.77
2018-07-12T08:08:22.967Z,23.77
2018-07-12T08:09:23.006Z,23.79
2018-07-12T08:10:22.956Z,24.01
2018-07-12T08:11:22.945Z,24.00
2018-07-12T08:12:22.943Z,24.26
2018-07-12T08:13:22.943Z,24.14
2018-07-12T08:14:22.931Z,23.74
2018-07-12T08:15:22.926Z,23.44
2018-07-12T08:16:23.034Z,23.37
2018-07-12T08:17:22.925Z,23.37
2018-07-12T08:18:22.909Z,23.42
2018-07-12T08:19:22.906Z,23.40
2018-07-12T08:20:22.898Z,23.40
2018-07-12T08:21:22.896Z,23.63
2018-07-12T08:22:22.902Z,23.85
2018-07-12T08:23:22.889Z,23.89
2018-07-12T08:24:22.873Z,23.79
2018-07-12T08:25:22.866Z,24.07
2018-07-12T08:26:22.861Z,24.16
2018-07-12T08:27:22.855Z,24.36
2018-07-12T08:28:22.850Z,24.28
2018-07-12T08:29:22.841Z,24.34
2018-07-12T08:30:22.834Z,24.37
2018-07-12T08:31:22.845Z,24.09
2018-07-12T08:32:22.819Z,23.99
2018-07-12T08:33:22.877Z,23.95
2018-07-12T08:34:22.808Z,23.95
2018-07-12T08:35:22.799Z,24.28
2018-07-12T08:36:22.793Z,24.36
2018-07-12T08:37:22.788Z,24.53
2018-07-12T08:38:22.779Z,24.82
2018-07-12T08:39:22.776Z,24.81
2018-07-12T08:40:22.774Z,24.88
2018-07-12T08:41:22.755Z,24.89
2018-07-12T08:42:22.788Z,24.89
2018-07-12T08:43:22.753Z,24.78
2018-07-12T08:44:22.749Z,24.69
2018-07-12T08:45:22.727Z,24.68
2018-07-12T08:47:22.715Z,24.09
2018-07-12T08:48:22.756Z,23.89
2018-07-12T08:49:22.697Z,23.94
2018-07-12T08:50:23.231Z,24.00
2018-07-12T08:51:22.886Z,24.09
2018-07-12T08:52:22.790Z,24.16
2018-07-12T08:53:22.880Z,24.16
2018-07-12T08:54:22.872Z,23.99
2018-07-12T08:55:22.867Z,24.00
2018-07-12T08:56:22.858Z,24.06
2018-07-12T08:57:22.640Z,24.10
2018-07-12T08:58:22.632Z,24.14
2018-07-12T08:59:22.623Z,24.32
2018-07-12T09:00:22.626Z,24.40
2018-07-12T09:01:22.609Z,24.50
2018-07-12T09:02:22.606Z,24.59
2018-07-12T09:03:22.592Z,24.81
2018-07-12T09:04:22.595Z,25.03
2018-07-12T09:05:22.595Z,24.85
2018-07-12T09:06:22.578Z,24.93
2018-07-12T09:07:22.571Z,24.92
2018-07-12T09:08:22.566Z,25.46
2018-07-12T09:09:22.559Z,25.95
2018-07-12T09:10:22.551Z,26.30
2018-07-12T09:11:22.539Z,26.37
2018-07-12T09:12:22.531Z,26.31
2018-07-12T09:13:22.533Z,26.15
2018-07-12T09:14:22.530Z,26.04
2018-07-12T09:15:22.529Z,26.23
2018-07-12T09:16:22.521Z,26.45
2018-07-12T09:17:22.518Z,26.55
2018-07-12T09:18:22.499Z,26.49
2018-07-12T09:19:22.495Z,26.44
2018-07-12T09:20:22.486Z,26.29
2018-07-12T09:21:22.481Z,26.64
2018-07-12T09:22:22.473Z,26.53
2018-07-12T09:23:22.470Z,26.37
2018-07-12T09:24:22.467Z,26.41
2018-07-12T09:25:22.466Z,26.10
2018-07-12T09:26:22.456Z,25.73
2018-07-12T09:27:22.450Z,25.48
2018-07-12T09:28:22.446Z,25.29
2018-07-12T09:29:22.440Z,25.41
2018-07-12T09:30:22.435Z,25.37
2018-07-12T09:31:22.430Z,25.51
2018-07-12T09:32:22.424Z,25.40
2018-07-12T09:33:22.418Z,25.25
2018-07-12T09:34:22.415Z,25.24
2018-07-12T09:35:22.411Z,25.33
2018-07-12T09:36:22.412Z,25.55
2018-07-12T09:37:22.401Z,25.77
2018-07-12T09:38:22.393Z,26.03
2018-07-12T09:39:22.393Z,26.19
2018-07-12T09:40:22.385Z,26.53
2018-07-12T09:41:22.378Z,26.56
2018-07-12T09:42:22.380Z,26.83
2018-07-12T09:43:22.377Z,26.68
2018-07-12T09:44:22.368Z,26.39
2018-07-12T09:45:22.366Z,26.01
2018-07-12T09:46:22.395Z,25.63
2018-07-12T09:47:22.367Z,25.41
2018-07-12T09:48:22.349Z,25.40
2018-07-12T09:49:22.424Z,25.95
2018-07-12T09:50:22.350Z,26.39
2018-07-12T09:51:22.336Z,26.93
2018-07-12T09:52:22.325Z,27.22
2018-07-12T09:53:22.317Z,27.40
2018-07-12T09:54:22.321Z,27.43
2018-07-12T09:55:22.306Z,26.92
2018-07-12T09:56:22.482Z,26.93
2018-07-12T09:57:22.299Z,26.88
2018-07-12T09:58:22.293Z,26.70
2018-07-12T09:59:22.290Z,26.42
2018-07-12T10:00:22.287Z,26.26
2018-07-12T10:01:22.355Z,26.16
2018-07-12T10:02:22.273Z,26.23
2018-07-12T10:03:22.267Z,26.64
2018-07-12T10:04:22.270Z,26.79
2018-07-12T10:05:22.258Z,26.83
2018-07-12T10:06:22.252Z,26.74
2018-07-12T10:07:22.249Z,26.79
2018-07-12T10:08:22.240Z,26.78
2018-07-12T10:09:22.232Z,27.53
2018-07-12T10:10:22.229Z,27.15
2018-07-12T10:11:22.227Z,27.66
2018-07-12T10:12:22.220Z,27.45
2018-07-12T10:13:22.215Z,27.90
2018-07-12T10:14:22.216Z,28.71
2018-07-12T10:15:22.204Z,29.27
2018-07-12T10:16:22.200Z,29.89
2018-07-12T10:17:22.195Z,29.44
2018-07-12T10:18:22.193Z,29.79
2018-07-12T10:19:22.194Z,30.49
2018-07-12T10:20:22.188Z,30.63
2018-07-12T10:21:22.183Z,29.79
2018-07-12T10:22:22.189Z,28.84
2018-07-12T10:23:22.191Z,28.75
2018-07-12T10:24:22.184Z,29.37
2018-07-12T10:25:22.177Z,29.86
2018-07-12T10:26:22.176Z,30.32
2018-07-12T10:27:22.174Z,30.44
2018-07-12T10:28:22.228Z,30.83
2018-07-12T10:29:22.179Z,30.99
2018-07-12T10:30:22.175Z,30.61
2018-07-12T10:31:22.176Z,30.24
2018-07-12T10:32:22.175Z,30.89
2018-07-12T10:33:22.176Z,30.52
2018-07-12T10:34:22.180Z,30.06
2018-07-12T10:35:22.193Z,29.68
2018-07-12T10:36:22.186Z,30.44
2018-07-12T10:37:22.199Z,31.00
2018-07-12T10:38:22.184Z,30.92
2018-07-12T10:39:22.187Z,31.14
2018-07-12T10:40:22.188Z,29.89
2018-07-12T10:41:22.185Z,30.11
2018-07-12T10:42:22.190Z,30.77
2018-07-12T10:43:22.189Z,31.35
2018-07-12T10:44:22.208Z,31.64
2018-07-12T10:45:22.193Z,31.86
2018-07-12T10:46:22.204Z,32.01
2018-07-12T10:47:22.199Z,32.09
2018-07-12T10:48:22.202Z,32.11
2018-07-12T10:49:22.204Z,31.66
2018-07-12T10:50:22.215Z,30.83
2018-07-12T10:51:22.219Z,30.14
2018-07-12T10:52:22.217Z,30.43
2018-07-12T10:53:22.218Z,30.51
2018-07-12T10:54:22.227Z,31.22
2018-07-12T10:55:22.240Z,31.51
2018-07-12T10:56:22.232Z,31.74
2018-07-12T10:57:22.246Z,31.89
2018-07-12T10:58:22.239Z,32.17
2018-07-12T10:59:22.251Z,31.90
2018-07-12T11:00:22.260Z,31.67
2018-07-12T11:01:22.254Z,31.42
2018-07-12T11:02:22.261Z,31.18
2018-07-12T11:03:22.264Z,31.50
2018-07-12T11:04:22.268Z,31.45
2018-07-12T11:05:22.277Z,31.14
2018-07-12T11:06:22.273Z,31.02
2018-07-12T11:07:22.281Z,30.55
2018-07-12T11:08:22.288Z,30.03
2018-07-12T11:09:22.286Z,29.96
2018-07-12T11:10:22.345Z,30.48
2018-07-12T11:11:22.300Z,31.05
2018-07-12T11:12:22.302Z,30.67
2018-07-12T11:13:22.298Z,30.43
2018-07-12T11:14:22.303Z,30.38
2018-07-12T11:15:22.312Z,30.24
2018-07-12T11:16:22.326Z,30.98
2018-07-12T11:17:22.308Z,31.60
2018-07-12T11:18:22.315Z,31.69
2018-07-12T11:19:22.317Z,31.87
2018-07-12T11:20:22.321Z,31.17
2018-07-12T11:21:22.321Z,30.52
2018-07-12T11:22:22.325Z,30.24
2018-07-12T11:23:22.330Z,29.96
2018-07-12T11:24:22.332Z,29.49
2018-07-12T11:25:22.332Z,29.24
2018-07-12T11:26:22.336Z,28.87
2018-07-12T11:27:22.337Z,28.75
2018-07-12T11:28:22.337Z,28.71
2018-07-12T11:29:22.340Z,28.96
2018-07-12T11:30:22.400Z,29.52
2018-07-12T11:31:22.358Z,30.08
2018-07-12T11:32:22.345Z,29.67
2018-07-12T11:33:22.354Z,29.64
2018-07-12T11:34:22.349Z,29.46
2018-07-12T11:35:22.345Z,29.07
2018-07-12T11:36:22.415Z,28.89
2018-07-12T11:37:22.351Z,28.41
2018-07-12T11:38:22.352Z,28.10
2018-07-12T11:39:22.359Z,27.88
2018-07-12T11:40:22.343Z,28.41
2018-07-12T11:41:22.349Z,28.89
2018-07-12T11:42:22.343Z,29.47
2018-07-12T11:43:22.351Z,29.69
2018-07-12T11:44:22.341Z,30.18
2018-07-12T11:45:22.344Z,30.44
2018-07-12T11:46:22.341Z,30.23
2018-07-12T11:47:22.336Z,29.87
2018-07-12T11:48:22.344Z,29.59
2018-07-12T11:49:22.350Z,29.31
2018-07-12T11:50:22.348Z,28.25
2018-07-12T11:51:22.337Z,28.15
2018-07-12T11:52:22.336Z,28.09
2018-07-12T11:53:22.332Z,28.35
2018-07-12T11:54:22.343Z,28.25
2018-07-12T11:55:22.341Z,28.19
2018-07-12T11:56:22.332Z,28.47
2018-07-12T11:57:22.336Z,28.28
2018-07-12T11:58:22.342Z,28.23
2018-07-12T11:59:22.324Z,28.23
2018-07-12T12:00:22.321Z,28.12
2018-07-12T12:01:22.390Z,28.18
2018-07-12T12:02:22.323Z,28.19
2018-07-12T12:03:22.322Z,28.45
2018-07-12T12:04:22.315Z,28.50
2018-07-12T12:05:22.306Z,28.57
2018-07-12T12:06:22.310Z,28.82
2018-07-12T12:07:22.303Z,28.93
2018-07-12T12:08:22.307Z,28.83
2018-07-12T12:09:22.301Z,28.70
2018-07-12T12:10:22.291Z,28.72
2018-07-12T12:11:22.288Z,28.72
2018-07-12T12:12:22.283Z,28.52
2018-07-12T12:13:22.287Z,28.15
2018-07-12T12:14:22.273Z,28.33
2018-07-12T12:15:22.271Z,28.70
2018-07-12T12:16:22.268Z,28.80
2018-07-12T12:17:22.263Z,29.02
2018-07-12T12:18:22.269Z,29.02
2018-07-12T12:19:22.306Z,28.96
2018-07-12T12:20:22.265Z,29.07
2018-07-12T12:21:22.262Z,28.92
2018-07-12T12:22:22.247Z,29.00
2018-07-12T12:23:22.241Z,29.25
2018-07-12T12:24:22.240Z,29.27
2018-07-12T12:25:22.255Z,28.94
2018-07-12T12:26:22.282Z,28.97
2018-07-12T12:27:22.223Z,28.67
2018-07-12T12:28:22.241Z,28.27
2018-07-12T12:29:22.211Z,28.25
2018-07-12T12:30:22.219Z,28.18
2018-07-12T12:31:22.206Z,27.86
2018-07-12T12:32:22.202Z,27.91
2018-07-12T12:33:22.219Z,27.83
2018-07-12T12:34:22.191Z,27.64
2018-07-12T12:35:22.187Z,27.78
2018-07-12T12:36:22.180Z,27.72
2018-07-12T12:37:22.178Z,27.76
2018-07-12T12:38:22.167Z,27.67
2018-07-12T12:39:22.265Z,28.03
2018-07-12T12:40:22.159Z,27.95
2018-07-12T12:41:22.159Z,27.83
2018-07-12T12:42:22.150Z,27.66
2018-07-12T12:43:22.345Z,27.52
2018-07-12T12:44:22.542Z,27.47
2018-07-12T12:45:22.138Z,27.40
2018-07-12T12:46:22.129Z,27.50
2018-07-12T12:47:22.118Z,27.48
2018-07-12T12:48:22.112Z,27.40
2018-07-12T12:49:22.109Z,27.19
2018-07-12T12:50:22.098Z,27.08
2018-07-12T12:51:22.093Z,26.98
2018-07-12T12:52:22.088Z,26.83
2018-07-12T12:53:22.079Z,26.93
2018-07-12T12:54:22.078Z,26.86
2018-07-12T12:55:22.065Z,26.83